createdAt,value
2023-03-25T00:02:20.931Z,11.99
2023-03-25T00:04:54.580Z,11.91
2023-03-25T00:07:22.763Z,12.06
2023-03-25T00:09:49.532Z,12.03
2023-03-25T00:12:18.902Z,11.99
2023-03-25T00:14:54.681Z,12.03
2023-03-25T00:17:29.203Z,11.86
2023-03-25T00:19:55.719Z,11.87
2023-03-25T00:22:22.587Z,11.80
2023-03-25T00:24:49.211Z,11.98
2023-03-25T00:27:17.611Z,12.04
2023-03-25T00:29:44.978Z,11.97
2023-03-25T00:32:12.798Z,11.80
2023-03-25T00:34:47.206Z,11.81
2023-03-25T00:37:21.637Z,11.89
2023-03-25T00:39:48.790Z,11.81
2023-03-25T00:42:26.027Z,11.95
2023-03-25T00:44:53.422Z,11.82
2023-03-25T00:47:21.837Z,12.04
2023-03-25T00:49:49.693Z,11.81
2023-03-25T00:52:16.578Z,11.68
2023-03-25T00:54:43.271Z,11.80
2023-03-25T00:57:09.905Z,11.84
2023-03-25T00:59:36.418Z,11.90
2023-03-25T01:02:03.648Z,11.86
2023-03-25T01:04:30.188Z,11.70
2023-03-25T01:06:56.729Z,11.78
2023-03-25T01:09:23.231Z,11.91
2023-03-25T01:11:49.812Z,11.86
2023-03-25T01:14:19.994Z,11.76
2023-03-25T01:16:46.820Z,11.81
2023-03-25T01:19:14.572Z,11.67
2023-03-25T01:21:41.794Z,11.71
2023-03-25T01:24:13.082Z,11.70
2023-03-25T01:26:41.315Z,11.66
2023-03-25T01:29:08.029Z,11.68
2023-03-25T01:31:34.584Z,11.67
2023-03-25T01:34:01.100Z,11.82
2023-03-25T01:36:29.764Z,11.83
2023-03-25T01:38:59.041Z,11.84
2023-03-25T01:41:35.681Z,11.72
2023-03-25T01:44:29.757Z,11.61
2023-03-25T01:46:59.298Z,11.52
2023-03-25T01:49:33.120Z,11.66
2023-03-25T01:52:06.677Z,11.85
2023-03-25T01:54:33.790Z,11.74
2023-03-25T01:57:00.652Z,11.65
2023-03-25T01:59:29.437Z,11.76
2023-03-25T02:02:01.614Z,11.69
2023-03-25T02:04:40.458Z,11.59
2023-03-25T02:07:08.898Z,11.70
2023-03-25T02:09:36.241Z,11.75
2023-03-25T02:12:02.761Z,11.54
2023-03-25T02:14:32.788Z,11.65
2023-03-25T02:17:17.291Z,11.62
2023-03-25T02:20:09.018Z,11.59
2023-03-25T02:22:57.094Z,11.50
2023-03-25T02:25:46.047Z,11.69
2023-03-25T02:28:40.013Z,11.61
2023-03-25T02:31:39.818Z,11.56
2023-03-25T02:34:22.621Z,11.53
2023-03-25T02:37:07.046Z,11.61
2023-03-25T02:39:52.619Z,11.47
2023-03-25T02:42:31.068Z,11.73
2023-03-25T02:45:13.508Z,11.65
2023-03-25T02:47:55.001Z,11.77
2023-03-25T02:50:28.222Z,11.65
2023-03-25T02:52:59.537Z,11.78
2023-03-25T02:55:30.553Z,11.66
2023-03-25T02:57:59.260Z,11.71
2023-03-25T03:00:29.827Z,11.79
2023-03-25T03:03:05.329Z,11.46
2023-03-25T03:05:44.932Z,11.66
2023-03-25T03:08:23.470Z,11.58
2023-03-25T03:10:53.057Z,11.76
2023-03-25T03:13:19.447Z,11.64
2023-03-25T03:15:57.688Z,11.63
2023-03-25T03:18:38.117Z,11.65
2023-03-25T03:21:40.879Z,11.68
2023-03-25T03:24:21.065Z,11.66
2023-03-25T03:26:59.485Z,11.58
2023-03-25T03:29:32.278Z,11.60
2023-03-25T03:32:11.568Z,11.59
2023-03-25T03:34:47.016Z,11.63
2023-03-25T03:37:16.765Z,11.65
2023-03-25T03:39:48.998Z,11.63
2023-03-25T03:42:41.366Z,11.58
2023-03-25T03:45:23.002Z,11.51
2023-03-25T03:47:53.713Z,11.55
2023-03-25T03:50:29.184Z,11.59
2023-03-25T03:53:08.495Z,11.44
2023-03-25T03:55:44.314Z,11.30
2023-03-25T03:58:25.358Z,11.36
2023-03-25T04:01:03.134Z,11.13
2023-03-25T04:03:40.727Z,11.33
2023-03-25T04:06:21.030Z,11.33
2023-03-25T04:08:58.725Z,11.16
2023-03-25T04:11:33.605Z,11.24
2023-03-25T04:14:02.588Z,11.30
2023-03-25T04:16:29.039Z,11.12
2023-03-25T04:18:55.602Z,11.07
2023-03-25T04:21:22.247Z,11.14
2023-03-25T04:23:51.927Z,10.81
2023-03-25T04:26:18.835Z,10.99
2023-03-25T04:28:45.647Z,10.96
2023-03-25T04:31:17.967Z,10.87
2023-03-25T04:33:48.376Z,11.00
2023-03-25T04:36:15.755Z,10.91
2023-03-25T04:38:45.690Z,10.91
2023-03-25T04:41:13.863Z,10.81
2023-03-25T04:43:41.798Z,10.94
2023-03-25T04:46:15.112Z,10.87
2023-03-25T04:48:45.509Z,10.80
2023-03-25T04:51:14.560Z,11.01
2023-03-25T04:53:41.874Z,10.93
2023-03-25T04:56:16.134Z,11.03
2023-03-25T04:58:43.727Z,10.87
2023-03-25T05:01:42.157Z,10.97
2023-03-25T05:04:12.508Z,10.85
2023-03-25T05:06:41.780Z,10.81
2023-03-25T05:09:14.232Z,10.77
2023-03-25T05:11:41.812Z,10.83
2023-03-25T05:14:13.655Z,10.89
2023-03-25T05:16:40.846Z,11.16
2023-03-25T05:19:07.705Z,10.87
2023-03-25T05:21:36.057Z,10.93
2023-03-25T05:24:03.772Z,10.85
2023-03-25T05:26:34.322Z,10.74
2023-03-25T05:29:04.978Z,10.90
2023-03-25T05:31:31.851Z,10.61
2023-03-25T05:34:06.486Z,10.66
2023-03-25T05:36:32.967Z,10.88
2023-03-25T05:39:05.408Z,10.73
2023-03-25T05:41:39.120Z,10.79
2023-03-25T05:44:12.917Z,10.80
2023-03-25T05:46:39.364Z,10.98
2023-03-25T05:49:05.784Z,11.00
2023-03-25T05:51:37.674Z,10.87
2023-03-25T05:54:11.185Z,11.02
2023-03-25T05:56:38.592Z,10.94
2023-03-25T05:59:05.127Z,10.89
2023-03-25T06:01:34.710Z,10.88
2023-03-25T06:04:02.865Z,10.96
2023-03-25T06:06:32.120Z,10.93
2023-03-25T06:08:59.075Z,11.15
2023-03-25T06:11:25.731Z,11.13
2023-03-25T06:13:52.516Z,11.09
2023-03-25T06:16:27.869Z,11.06
2023-03-25T06:18:59.644Z,11.28
2023-03-25T06:21:33.293Z,11.15
2023-03-25T06:24:01.390Z,11.16
2023-03-25T06:26:31.686Z,11.20
2023-03-25T06:28:58.486Z,11.09
2023-03-25T06:31:26.721Z,11.35
2023-03-25T06:33:54.624Z,11.25
2023-03-25T06:36:21.411Z,11.19
2023-03-25T06:38:50.323Z,11.21
2023-03-25T06:41:20.890Z,11.15
2023-03-25T06:43:48.548Z,11.28
2023-03-25T06:46:16.232Z,11.49
2023-03-25T06:48:42.806Z,11.39
2023-03-25T06:51:09.268Z,11.14
2023-03-25T06:53:35.832Z,11.13
2023-03-25T06:56:02.400Z,11.25
2023-03-25T06:58:35.211Z,11.41
2023-03-25T07:01:06.695Z,11.25
2023-03-25T07:03:34.453Z,11.58
2023-03-25T07:06:00.927Z,11.40
2023-03-25T07:08:34.412Z,11.66
2023-03-25T07:11:05.725Z,11.56
2023-03-25T07:13:32.259Z,11.57
2023-03-25T07:16:00.821Z,11.46
2023-03-25T07:18:27.793Z,11.63
2023-03-25T07:20:54.619Z,11.51
2023-03-25T07:23:21.208Z,11.58
2023-03-25T07:25:48.079Z,11.68
2023-03-25T07:28:14.815Z,11.60
2023-03-25T07:30:41.373Z,11.53
2023-03-25T07:33:07.850Z,11.45
2023-03-25T07:35:34.412Z,11.56
2023-03-25T07:38:00.913Z,11.49
2023-03-25T07:40:27.364Z,11.54
2023-03-25T07:42:53.826Z,11.61
2023-03-25T07:45:20.326Z,11.64
2023-03-25T07:47:50.384Z,11.51
2023-03-25T07:50:18.496Z,11.53
2023-03-25T07:52:45.552Z,11.57
2023-03-25T07:55:13.126Z,11.48
2023-03-25T07:57:40.859Z,11.54
2023-03-25T08:00:08.156Z,11.24
2023-03-25T08:02:34.838Z,11.57
2023-03-25T08:05:03.263Z,11.55
2023-03-25T08:07:31.456Z,11.40
2023-03-25T08:09:57.903Z,11.54
2023-03-25T08:12:24.442Z,11.59
2023-03-25T08:14:51.180Z,11.52
2023-03-25T08:17:17.675Z,11.83
2023-03-25T08:19:44.166Z,11.69
2023-03-25T08:22:11.059Z,11.57
2023-03-25T08:24:37.647Z,11.78
2023-03-25T08:27:16.277Z,11.82
2023-03-25T08:29:44.526Z,11.83
2023-03-25T08:32:11.156Z,11.99
2023-03-25T08:34:39.838Z,11.93
2023-03-25T08:37:10.120Z,11.98
2023-03-25T08:39:39.951Z,11.95
2023-03-25T08:42:08.168Z,11.78
2023-03-25T08:44:35.462Z,12.02
2023-03-25T08:47:01.974Z,11.98
2023-03-25T08:49:28.425Z,12.04
2023-03-25T08:51:57.523Z,12.03
2023-03-25T08:54:26.040Z,12.17
2023-03-25T08:56:52.909Z,12.22
2023-03-25T08:59:19.687Z,12.28
2023-03-25T09:01:46.565Z,12.21
2023-03-25T09:04:13.890Z,12.18
2023-03-25T09:06:48.091Z,11.96
2023-03-25T09:09:27.456Z,11.83
2023-03-25T09:11:54.427Z,11.95
2023-03-25T09:14:20.886Z,11.82
2023-03-25T09:16:47.332Z,12.04
2023-03-25T09:19:13.748Z,12.09
2023-03-25T09:21:40.229Z,11.95
2023-03-25T09:24:08.908Z,12.10
2023-03-25T09:26:36.977Z,12.17
2023-03-25T09:29:03.740Z,12.28
2023-03-25T09:31:30.563Z,12.35
2023-03-25T09:33:57.097Z,12.32
2023-03-25T09:36:23.563Z,12.52
2023-03-25T09:38:50.098Z,12.53
2023-03-25T09:41:32.707Z,12.46
2023-03-25T09:44:14.218Z,12.28
2023-03-25T09:46:41.176Z,12.03
2023-03-25T09:49:16.434Z,12.13
2023-03-25T09:51:46.291Z,11.82
2023-03-25T09:54:37.212Z,12.02
2023-03-25T09:57:11.774Z,12.08
2023-03-25T09:59:44.421Z,11.83
2023-03-25T10:02:33.410Z,11.95
2023-03-25T10:05:15.545Z,11.92
2023-03-25T10:08:03.434Z,11.88
2023-03-25T10:10:59.588Z,11.76
2023-03-25T10:13:26.018Z,11.87
2023-03-25T10:15:58.398Z,11.71
2023-03-25T10:18:32.524Z,11.74
2023-03-25T10:21:20.773Z,11.61
2023-03-25T10:24:21.419Z,11.64
2023-03-25T10:26:59.970Z,11.50
2023-03-25T10:29:34.470Z,11.50
2023-03-25T10:32:07.377Z,11.28
2023-03-25T10:34:46.703Z,11.39
2023-03-25T10:37:21.629Z,11.59
2023-03-25T10:39:49.856Z,11.61
2023-03-25T10:42:30.537Z,11.72
2023-03-25T10:44:57.500Z,11.70
2023-03-25T10:47:31.086Z,11.71
2023-03-25T10:49:59.382Z,11.52
2023-03-25T10:52:26.142Z,11.45
2023-03-25T10:54:56.125Z,11.49
2023-03-25T10:57:28.998Z,11.33
2023-03-25T11:00:16.848Z,11.35
2023-03-25T11:02:43.434Z,11.16
2023-03-25T11:05:10.034Z,11.07
2023-03-25T11:07:40.326Z,11.22
2023-03-25T11:10:14.531Z,11.07
2023-03-25T11:12:46.460Z,11.12
2023-03-25T11:15:15.292Z,11.13
2023-03-25T11:17:42.761Z,11.17
2023-03-25T11:20:19.075Z,11.16
2023-03-25T11:22:49.941Z,11.29
2023-03-25T11:25:21.297Z,11.19
2023-03-25T11:27:52.880Z,11.41
2023-03-25T11:30:22.437Z,11.62
2023-03-25T11:33:07.901Z,11.69
2023-03-25T11:35:44.088Z,11.94
2023-03-25T11:38:22.091Z,12.21
2023-03-25T11:40:59.174Z,12.46
2023-03-25T11:43:29.778Z,12.75
2023-03-25T11:45:56.542Z,12.97
2023-03-25T11:48:28.651Z,13.43
2023-03-25T11:51:01.915Z,13.37
2023-03-25T11:53:32.110Z,13.38
2023-03-25T11:56:12.067Z,13.50
2023-03-25T11:58:40.603Z,13.91
2023-03-25T12:01:36.783Z,14.09
2023-03-25T12:04:22.839Z,14.29
2023-03-25T12:06:57.834Z,14.46
2023-03-25T12:09:30.459Z,13.95
2023-03-25T12:12:29.660Z,13.53
2023-03-25T12:15:26.278Z,13.57
2023-03-25T12:18:06.995Z,13.53
2023-03-25T12:20:52.067Z,13.42
2023-03-25T12:23:43.827Z,13.22
2023-03-25T12:26:24.372Z,13.24
2023-03-25T12:29:17.834Z,13.42
2023-03-25T12:31:44.263Z,13.51
2023-03-25T12:34:29.046Z,13.46
2023-03-25T12:36:55.503Z,13.63
2023-03-25T12:39:42.920Z,13.88
2023-03-25T12:42:25.685Z,13.83
2023-03-25T12:45:24.478Z,14.11
2023-03-25T12:48:10.508Z,14.17
2023-03-25T12:50:54.727Z,14.20
2023-03-25T12:53:35.986Z,14.24
2023-03-25T12:56:05.127Z,14.46
2023-03-25T12:58:40.623Z,14.61
2023-03-25T13:01:19.388Z,15.30
2023-03-25T13:03:55.109Z,16.09
2023-03-25T13:06:30.303Z,15.93
2023-03-25T13:09:04.096Z,15.87
2023-03-25T13:11:40.991Z,15.89
2023-03-25T13:14:17.569Z,15.29
2023-03-25T13:16:46.265Z,14.66
2023-03-25T13:19:22.813Z,15.15
2023-03-25T13:22:24.021Z,14.75
2023-03-25T13:24:59.198Z,14.40
2023-03-25T13:27:26.276Z,14.58
2023-03-25T13:29:56.601Z,14.56
2023-03-25T13:32:47.954Z,14.77
2023-03-25T13:35:20.031Z,14.89
2023-03-25T13:37:50.192Z,14.65
2023-03-25T13:40:33.774Z,14.86
2023-03-25T13:43:13.375Z,15.10
2023-03-25T13:46:08.816Z,14.81
2023-03-25T13:48:46.051Z,14.75
2023-03-25T13:51:12.691Z,14.60
2023-03-25T13:53:51.779Z,14.44
2023-03-25T13:56:50.460Z,14.21
2023-03-25T13:59:54.351Z,13.85
2023-03-25T14:02:32.106Z,13.56
2023-03-25T14:05:34.807Z,13.60
2023-03-25T14:08:07.677Z,13.34
2023-03-25T14:11:11.490Z,13.41
2023-03-25T14:13:54.606Z,13.06
2023-03-25T14:16:25.925Z,13.06
2023-03-25T14:18:56.470Z,13.21
2023-03-25T14:21:41.126Z,13.24
2023-03-25T14:24:31.464Z,12.78
2023-03-25T14:27:07.359Z,12.83
2023-03-25T14:29:55.694Z,12.97
2023-03-25T14:32:22.132Z,13.35
2023-03-25T14:34:50.195Z,13.20
2023-03-25T14:37:26.080Z,13.56
2023-03-25T14:39:55.182Z,13.21
2023-03-25T14:42:21.587Z,13.29
2023-03-25T14:44:54.147Z,13.24
2023-03-25T14:47:20.739Z,13.66
2023-03-25T14:49:50.295Z,13.94
2023-03-25T14:52:22.712Z,13.72
2023-03-25T14:54:53.123Z,13.37
2023-03-25T14:57:26.127Z,13.63
2023-03-25T15:00:03.283Z,13.82
2023-03-25T15:02:33.362Z,13.18
2023-03-25T15:05:22.551Z,13.37
2023-03-25T15:07:57.039Z,13.46
2023-03-25T15:10:36.627Z,13.26
2023-03-25T15:13:28.946Z,13.39
2023-03-25T15:16:00.728Z,12.89
2023-03-25T15:18:53.149Z,13.03
2023-03-25T15:21:24.491Z,12.87
2023-03-25T15:23:50.911Z,13.14
2023-03-25T15:26:41.953Z,13.27
2023-03-25T15:29:20.816Z,13.24
2023-03-25T15:32:12.011Z,13.43
2023-03-25T15:35:03.541Z,13.34
2023-03-25T15:37:57.861Z,13.36
2023-03-25T15:40:49.700Z,13.63
2023-03-25T15:43:34.289Z,13.78
2023-03-25T15:46:25.472Z,13.64
2023-03-25T15:48:51.866Z,13.29
2023-03-25T15:51:31.734Z,13.44
2023-03-25T15:54:35.643Z,13.35
2023-03-25T15:57:14.563Z,13.44
2023-03-25T15:59:50.408Z,13.28
2023-03-25T16:02:42.747Z,13.22
2023-03-25T16:05:14.255Z,13.07
2023-03-25T16:07:42.289Z,13.06
2023-03-25T16:10:14.995Z,13.26
2023-03-25T16:12:43.464Z,13.12
2023-03-25T16:15:26.966Z,13.06
2023-03-25T16:17:54.459Z,13.20
2023-03-25T16:20:27.628Z,13.35
2023-03-25T16:22:57.412Z,13.16
2023-03-25T16:25:35.529Z,12.93
2023-03-25T16:28:07.814Z,13.17
2023-03-25T16:30:42.673Z,12.96
2023-03-25T16:33:11.919Z,12.94
2023-03-25T16:35:41.688Z,12.86
2023-03-25T16:38:13.338Z,12.91
2023-03-25T16:40:42.068Z,12.76
2023-03-25T16:43:24.003Z,12.75
2023-03-25T16:45:55.640Z,12.92
2023-03-25T16:48:28.343Z,12.83
2023-03-25T16:50:57.540Z,12.70
2023-03-25T16:53:25.382Z,12.78
2023-03-25T16:56:14.826Z,12.58
2023-03-25T16:58:58.801Z,12.52
2023-03-25T17:01:26.062Z,12.56
2023-03-25T17:04:05.282Z,12.69
2023-03-25T17:06:39.327Z,12.68
2023-03-25T17:09:15.242Z,12.62
2023-03-25T17:11:41.855Z,12.50
2023-03-25T17:14:17.867Z,12.76
2023-03-25T17:16:48.227Z,12.77
2023-03-25T17:19:16.339Z,12.66
2023-03-25T17:22:03.350Z,12.68
2023-03-25T17:24:38.871Z,12.70
2023-03-25T17:27:17.018Z,12.76
2023-03-25T17:29:51.987Z,12.67
2023-03-25T17:32:18.730Z,12.63
2023-03-25T17:34:55.838Z,12.57
2023-03-25T17:37:25.035Z,12.71
2023-03-25T17:39:51.875Z,12.83
2023-03-25T17:42:24.713Z,12.73
2023-03-25T17:44:52.104Z,12.79
2023-03-25T17:47:21.031Z,12.74
2023-03-25T17:49:47.960Z,12.77
2023-03-25T17:52:14.554Z,12.66
2023-03-25T17:54:41.188Z,12.81
2023-03-25T17:57:14.177Z,12.75
2023-03-25T17:59:40.865Z,12.60
2023-03-25T18:02:12.565Z,13.06
2023-03-25T18:04:39.454Z,12.70
2023-03-25T18:07:06.033Z,12.82
2023-03-25T18:09:32.850Z,12.81
2023-03-25T18:11:59.941Z,12.71
2023-03-25T18:14:26.750Z,12.69
2023-03-25T18:16:54.609Z,12.82
2023-03-25T18:19:23.958Z,12.73
2023-03-25T18:21:50.641Z,12.79
2023-03-25T18:24:17.234Z,12.69
2023-03-25T18:26:44.579Z,12.65
2023-03-25T18:29:24.779Z,12.56
2023-03-25T18:31:52.364Z,12.80
2023-03-25T18:34:20.575Z,12.85
2023-03-25T18:36:47.180Z,12.86
2023-03-25T18:39:19.584Z,12.74
2023-03-25T18:41:46.029Z,12.38
2023-03-25T18:44:12.612Z,11.95
2023-03-25T18:46:40.272Z,11.89
2023-03-25T18:49:16.800Z,11.78
2023-03-25T18:51:44.034Z,11.76
2023-03-25T18:54:11.178Z,11.70
2023-03-25T18:56:38.213Z,11.59
2023-03-25T18:59:04.782Z,11.62
2023-03-25T19:01:31.424Z,11.68
2023-03-25T19:04:02.760Z,11.41
2023-03-25T19:06:30.818Z,11.60
2023-03-25T19:08:57.748Z,11.49
2023-03-25T19:11:25.786Z,11.67
2023-03-25T19:13:52.461Z,11.67
2023-03-25T19:16:19.703Z,11.63
2023-03-25T19:18:47.343Z,11.77
2023-03-25T19:21:18.892Z,11.71
2023-03-25T19:23:46.447Z,11.71
2023-03-25T19:26:13.478Z,11.80
2023-03-25T19:28:40.968Z,11.86
2023-03-25T19:31:07.486Z,11.82
2023-03-25T19:33:34.075Z,11.76
2023-03-25T19:36:01.841Z,11.63
2023-03-25T19:38:30.065Z,11.24
2023-03-25T19:41:08.417Z,11.08
2023-03-25T19:43:35.181Z,10.79
2023-03-25T19:46:02.224Z,10.75
2023-03-25T19:48:29.941Z,10.80
2023-03-25T19:50:57.260Z,10.77
2023-03-25T19:53:25.419Z,10.80
2023-03-25T19:55:52.809Z,10.76
2023-03-25T19:58:22.603Z,10.74
2023-03-25T20:00:49.236Z,10.72
2023-03-25T20:03:15.813Z,10.74
2023-03-25T20:05:42.711Z,10.81
2023-03-25T20:08:09.570Z,10.77
2023-03-25T20:10:38.661Z,10.80
2023-03-25T20:13:05.366Z,10.87
2023-03-25T20:15:32.219Z,10.78
2023-03-25T20:17:59.371Z,10.63
2023-03-25T20:20:26.295Z,10.76
2023-03-25T20:22:52.883Z,10.57
2023-03-25T20:25:19.770Z,10.50
2023-03-25T20:27:47.069Z,10.46
2023-03-25T20:30:16.567Z,10.40
2023-03-25T20:32:45.699Z,10.43
2023-03-25T20:35:16.532Z,10.44
2023-03-25T20:37:45.219Z,10.44
2023-03-25T20:40:14.329Z,10.40
2023-03-25T20:42:42.398Z,10.36
2023-03-25T20:45:11.081Z,10.45
2023-03-25T20:47:37.701Z,10.44
2023-03-25T20:50:05.344Z,10.34
2023-03-25T20:52:32.022Z,10.34
2023-03-25T20:54:58.583Z,10.25
2023-03-25T20:57:25.121Z,10.28
2023-03-25T20:59:52.855Z,10.26
2023-03-25T21:02:21.392Z,10.28
2023-03-25T21:04:48.342Z,10.36
2023-03-25T21:07:19.047Z,10.28
2023-03-25T21:09:47.756Z,10.28
2023-03-25T21:12:14.483Z,10.32
2023-03-25T21:14:41.295Z,10.25
2023-03-25T21:17:07.824Z,10.23
2023-03-25T21:19:34.393Z,10.17
2023-03-25T21:22:00.950Z,10.33
2023-03-25T21:24:27.428Z,10.30
2023-03-25T21:26:53.926Z,10.32
2023-03-25T21:29:20.946Z,10.27
2023-03-25T21:31:47.708Z,10.27
2023-03-25T21:34:15.782Z,10.33
2023-03-25T21:36:43.081Z,10.28
2023-03-25T21:39:10.302Z,10.19
2023-03-25T21:41:37.086Z,10.25
2023-03-25T21:44:05.359Z,10.20
2023-03-25T21:46:33.529Z,10.33
2023-03-25T21:49:02.315Z,10.26
2023-03-25T21:51:35.846Z,10.20
2023-03-25T21:54:02.633Z,10.19
2023-03-25T21:56:32.331Z,10.23
2023-03-25T21:58:58.945Z,10.24
2023-03-25T22:01:29.698Z,10.15
2023-03-25T22:03:58.218Z,10.02
2023-03-25T22:06:28.552Z,10.09
2023-03-25T22:08:57.094Z,10.11
2023-03-25T22:11:31.208Z,10.03
2023-03-25T22:13:58.240Z,10.01
2023-03-25T22:16:25.424Z,10.03
2023-03-25T22:18:53.373Z,9.94
2023-03-25T22:21:25.893Z,10.03
2023-03-25T22:23:57.883Z,9.97
2023-03-25T22:26:26.426Z,9.93
2023-03-25T22:28:56.525Z,9.96
2023-03-25T22:31:30.780Z,9.98
2023-03-25T22:34:10.962Z,9.88
2023-03-25T22:36:43.287Z,9.90
2023-03-25T22:39:10.356Z,9.96
2023-03-25T22:41:37.023Z,9.94
2023-03-25T22:44:03.597Z,9.78
2023-03-25T22:46:32.064Z,9.99
2023-03-25T22:48:58.581Z,9.95
2023-03-25T22:51:25.405Z,9.93
2023-03-25T22:53:51.858Z,9.97
2023-03-25T22:56:18.463Z,9.91
2023-03-25T22:58:45.149Z,10.00
2023-03-25T23:01:23.711Z,9.98
2023-03-25T23:03:51.791Z,9.95
2023-03-25T23:06:18.437Z,9.97
2023-03-25T23:08:45.218Z,9.92
2023-03-25T23:11:21.302Z,9.89
2023-03-25T23:13:51.713Z,9.92
2023-03-25T23:16:20.496Z,9.94
2023-03-25T23:18:47.327Z,10.06
2023-03-25T23:21:21.017Z,10.05
2023-03-25T23:23:52.829Z,10.07
2023-03-25T23:26:26.382Z,10.06
2023-03-25T23:28:56.383Z,10.07
2023-03-25T23:31:28.454Z,10.06
2023-03-25T23:33:57.484Z,10.03
2023-03-25T23:36:26.025Z,10.13
2023-03-25T23:38:53.586Z,10.13
2023-03-25T23:41:25.607Z,10.10
2023-03-25T23:43:53.685Z,10.10
2023-03-25T23:46:21.337Z,10.16
2023-03-25T23:48:48.428Z,10.17
2023-03-25T23:51:20.100Z,10.27
2023-03-25T23:53:48.337Z,10.12
2023-03-25T23:56:17.034Z,10.23
2023-03-25T23:58:44.504Z,10.28
